createdAt,value
2018-12-11T00:02:00.947Z,4.40
2018-12-11T00:04:31.857Z,4.50
2018-12-11T00:07:00.766Z,4.50
2018-12-11T00:09:29.767Z,4.50
2018-12-11T00:11:58.662Z,4.50
2018-12-11T00:19:33.190Z,4.50
2018-12-11T00:22:02.035Z,4.40
2018-12-11T00:24:30.875Z,4.40
2018-12-11T00:26:59.720Z,4.40
2018-12-11T00:29:28.580Z,4.40
2018-12-11T00:31:57.425Z,4.40
2018-12-11T00:34:26.195Z,4.50
2018-12-11T00:36:55.080Z,4.40
2018-12-11T00:39:23.945Z,4.40
2018-12-11T00:41:52.836Z,4.30
2018-12-11T00:44:21.737Z,4.20
2018-12-11T00:46:50.725Z,4.20
2018-12-11T00:49:19.636Z,4.20
2018-12-11T00:51:48.497Z,4.20
2018-12-11T00:54:17.430Z,4.20
2018-12-11T00:56:46.349Z,4.20
2018-12-11T00:59:15.245Z,4.20
2018-12-11T01:01:44.092Z,4.20
2018-12-11T01:04:12.931Z,4.20
2018-12-11T01:06:41.840Z,4.30
2018-12-11T01:09:10.684Z,4.30
2018-12-11T01:11:39.520Z,4.20
2018-12-11T01:14:08.423Z,4.20
2018-12-11T01:16:37.231Z,4.10
2018-12-11T01:19:06.084Z,3.90
2018-12-11T01:21:34.959Z,3.80
2018-12-11T01:24:04.073Z,3.70
2018-12-11T01:26:33.200Z,3.70
2018-12-11T01:29:01.982Z,3.70
2018-12-11T01:31:30.857Z,3.70
2018-12-11T01:33:59.749Z,3.70
2018-12-11T01:36:28.737Z,3.60
2018-12-11T01:38:57.692Z,3.60
2018-12-11T01:41:26.592Z,3.60
2018-12-11T01:43:55.446Z,3.60
2018-12-11T01:46:24.453Z,3.60
2018-12-11T01:48:54.385Z,3.60
2018-12-11T01:51:23.231Z,3.60
2018-12-11T01:53:58.831Z,3.60
2018-12-11T01:56:27.764Z,3.60
2018-12-11T01:58:56.633Z,3.60
2018-12-11T02:01:25.468Z,3.50
2018-12-11T02:03:54.403Z,3.50
2018-12-11T02:06:23.259Z,3.50
2018-12-11T02:08:52.092Z,3.60
2018-12-11T02:11:20.963Z,3.60
2018-12-11T02:13:49.916Z,3.60
2018-12-11T02:16:18.867Z,3.70
2018-12-11T02:18:47.833Z,3.70
2018-12-11T02:26:22.227Z,3.70
2018-12-11T02:28:51.417Z,3.70
2018-12-11T02:31:20.512Z,3.70
2018-12-11T02:33:49.422Z,3.70
2018-12-11T02:36:18.386Z,3.80
2018-12-11T02:38:47.469Z,3.80
2018-12-11T02:41:16.395Z,3.90
2018-12-11T02:43:45.288Z,3.90
2018-12-11T02:46:14.169Z,3.90
2018-12-11T02:48:43.009Z,4.00
2018-12-11T02:51:11.942Z,4.00
2018-12-11T02:53:40.774Z,3.90
2018-12-11T02:56:09.553Z,4.00
2018-12-11T02:58:38.607Z,4.00
2018-12-11T03:01:07.711Z,4.00
2018-12-11T03:03:36.774Z,3.90
2018-12-11T03:06:05.955Z,3.70
2018-12-11T03:08:34.924Z,3.70
2018-12-11T03:11:04.419Z,3.60
2018-12-11T03:13:33.287Z,3.50
2018-12-11T03:16:02.226Z,3.50
2018-12-11T03:18:31.148Z,3.40
2018-12-11T03:21:00.141Z,3.40
2018-12-11T03:23:29.035Z,3.40
2018-12-11T03:25:58.004Z,3.40
2018-12-11T03:28:26.837Z,3.50
2018-12-11T03:30:55.722Z,3.50
2018-12-11T03:33:24.549Z,3.60
2018-12-11T03:35:53.432Z,3.70
2018-12-11T03:38:22.558Z,3.80
2018-12-11T03:40:51.463Z,3.90
2018-12-11T03:43:20.316Z,3.90
2018-12-11T03:45:49.335Z,3.90
2018-12-11T03:48:18.167Z,3.90
2018-12-11T03:50:47.273Z,4.00
2018-12-11T03:53:17.251Z,3.90
2018-12-11T03:55:46.149Z,3.80
2018-12-11T03:58:15.028Z,3.80
2018-12-11T04:00:43.914Z,3.80
2018-12-11T04:03:12.796Z,3.80
2018-12-11T04:05:41.787Z,3.70
2018-12-11T04:08:10.994Z,3.70
2018-12-11T04:10:40.177Z,3.70
2018-12-11T04:13:09.253Z,3.70
2018-12-11T04:15:38.267Z,3.70
2018-12-11T04:18:07.452Z,3.70
2018-12-11T04:20:36.271Z,3.70
2018-12-11T04:23:05.268Z,3.70
2018-12-11T04:25:34.178Z,3.70
2018-12-11T04:28:03.048Z,3.60
2018-12-11T04:30:32.033Z,3.60
2018-12-11T04:33:00.959Z,3.60
2018-12-11T04:35:29.821Z,3.60
2018-12-11T04:37:58.818Z,3.70
2018-12-11T04:40:27.774Z,3.70
2018-12-11T04:42:56.765Z,3.80
2018-12-11T04:45:26.585Z,3.90
2018-12-11T04:47:55.450Z,4.00
2018-12-11T04:50:24.277Z,4.00
2018-12-11T04:52:53.192Z,4.00
2018-12-11T04:55:22.190Z,4.00
2018-12-11T04:57:51.055Z,3.90
2018-12-11T05:00:19.998Z,3.90
2018-12-11T05:02:48.916Z,3.80
2018-12-11T05:05:17.859Z,3.70
2018-12-11T05:07:46.801Z,3.70
2018-12-11T05:10:15.650Z,3.60
2018-12-11T05:12:45.432Z,3.50
2018-12-11T05:15:14.358Z,3.50
2018-12-11T05:17:43.267Z,3.50
2018-12-11T05:20:15.834Z,3.50
2018-12-11T05:22:44.632Z,3.40
2018-12-11T05:25:14.395Z,3.40
2018-12-11T05:27:43.440Z,3.40
2018-12-11T05:30:12.421Z,3.30
2018-12-11T05:32:41.489Z,3.30
2018-12-11T05:35:10.589Z,3.30
2018-12-11T05:37:39.512Z,3.30
2018-12-11T05:40:09.545Z,3.40
2018-12-11T05:42:38.545Z,4.10
2018-12-11T05:45:07.604Z,3.40
2018-12-11T05:47:36.472Z,3.40
2018-12-11T05:50:06.128Z,3.40
2018-12-11T05:52:35.039Z,3.50
2018-12-11T05:55:04.477Z,3.50
2018-12-11T05:57:33.535Z,3.60
2018-12-11T06:00:02.655Z,3.70
2018-12-11T06:02:31.724Z,3.70
2018-12-11T06:05:00.550Z,3.70
2018-12-11T06:07:31.797Z,3.70
2018-12-11T06:10:00.758Z,3.70
2018-12-11T06:12:29.706Z,3.70
2018-12-11T06:14:58.584Z,3.70
2018-12-11T06:17:27.578Z,3.70
2018-12-11T06:19:56.599Z,3.70
2018-12-11T06:22:25.537Z,3.70
2018-12-11T06:24:54.437Z,3.70
2018-12-11T06:27:23.509Z,3.60
2018-12-11T06:29:52.571Z,3.60
2018-12-11T06:32:21.484Z,3.50
2018-12-11T06:34:50.379Z,3.50
2018-12-11T06:37:19.238Z,3.40
2018-12-11T06:39:48.229Z,3.40
2018-12-11T06:42:17.203Z,3.30
2018-12-11T06:44:46.254Z,3.30
2018-12-11T06:47:15.363Z,3.30
2018-12-11T06:49:44.354Z,3.30
2018-12-11T06:57:18.463Z,3.50
2018-12-11T06:59:47.565Z,3.70
2018-12-11T07:02:16.600Z,3.70
2018-12-11T07:04:45.585Z,3.80
2018-12-11T07:07:14.560Z,3.90
2018-12-11T07:09:43.526Z,3.90
2018-12-11T07:12:12.407Z,3.90
2018-12-11T07:14:41.358Z,4.00
2018-12-11T07:17:10.432Z,4.00
2018-12-11T07:19:44.635Z,3.90
2018-12-11T07:22:19.360Z,3.90
2018-12-11T07:24:48.259Z,3.90
2018-12-11T07:27:17.181Z,4.00
2018-12-11T07:29:46.207Z,3.90
2018-12-11T07:32:15.037Z,3.90
2018-12-11T07:34:44.036Z,3.90
2018-12-11T07:37:12.900Z,3.90
2018-12-11T07:39:41.802Z,3.90
2018-12-11T07:42:10.761Z,4.00
2018-12-11T07:44:39.649Z,4.20
2018-12-11T07:47:08.519Z,4.20
2018-12-11T07:49:37.434Z,4.20
2018-12-11T07:57:12.180Z,4.20
2018-12-11T07:59:41.047Z,4.20
2018-12-11T08:02:10.038Z,4.30
2018-12-11T08:04:38.948Z,4.30
2018-12-11T08:07:07.954Z,4.30
2018-12-11T08:09:37.015Z,4.40
2018-12-11T08:12:08.354Z,4.40
2018-12-11T08:14:37.239Z,4.50
2018-12-11T08:17:06.188Z,4.50
2018-12-11T08:19:35.044Z,4.60
2018-12-11T08:22:04.032Z,4.50
2018-12-11T08:24:32.941Z,4.50
2018-12-11T08:27:01.843Z,4.50
2018-12-11T08:29:30.812Z,4.60
2018-12-11T08:31:59.692Z,4.60
2018-12-11T08:34:28.598Z,4.50
2018-12-11T08:36:57.396Z,3.40
2018-12-11T08:39:27.188Z,4.70
2018-12-11T08:41:56.589Z,4.80
2018-12-11T08:44:25.705Z,5.00
2018-12-11T08:46:55.721Z,5.10
2018-12-11T08:49:25.851Z,5.10
2018-12-11T08:56:59.741Z,5.10
2018-12-11T08:59:28.718Z,4.90
2018-12-11T09:01:57.773Z,4.80
2018-12-11T09:04:26.945Z,4.80
2018-12-11T09:06:55.912Z,5.00
2018-12-11T09:09:24.794Z,5.90
2018-12-11T09:11:53.712Z,6.90
2018-12-11T09:14:23.573Z,7.50
2018-12-11T09:16:52.473Z,7.90
2018-12-11T09:19:21.365Z,8.60
2018-12-11T09:21:50.277Z,9.00
2018-12-11T09:24:19.228Z,9.50
2018-12-11T09:26:48.145Z,9.20
2018-12-11T09:29:17.252Z,9.10
2018-12-11T09:31:46.223Z,9.40
2018-12-11T09:34:15.205Z,9.00
2018-12-11T09:36:44.032Z,8.00
2018-12-11T09:39:12.924Z,7.40
2018-12-11T09:41:43.034Z,7.00
2018-12-11T09:44:12.004Z,6.70
2018-12-11T09:46:42.089Z,6.60
2018-12-11T09:49:10.984Z,6.50
2018-12-11T09:51:39.826Z,6.40
2018-12-11T09:54:08.703Z,6.30
2018-12-11T09:56:37.514Z,6.30
2018-12-11T09:59:06.438Z,6.30
2018-12-11T10:01:35.327Z,6.20
2018-12-11T10:04:04.269Z,6.20
2018-12-11T10:06:33.118Z,6.10
2018-12-11T10:09:05.250Z,6.20
2018-12-11T10:11:34.360Z,6.20
2018-12-11T10:14:03.477Z,6.10
2018-12-11T10:16:32.339Z,6.00
2018-12-11T10:19:01.124Z,6.00
2018-12-11T10:21:30.036Z,6.10
2018-12-11T10:23:58.824Z,6.10
2018-12-11T10:26:27.690Z,6.10
2018-12-11T10:28:56.665Z,6.10
2018-12-11T10:31:25.571Z,6.20
2018-12-11T10:33:54.458Z,6.20
2018-12-11T10:36:23.405Z,6.20
2018-12-11T10:38:52.343Z,6.10
2018-12-11T10:41:21.233Z,6.00
2018-12-11T10:43:50.119Z,6.10
2018-12-11T10:46:19.320Z,6.00
2018-12-11T10:48:48.193Z,6.10
2018-12-11T10:51:17.088Z,6.30
2018-12-11T10:53:46.405Z,6.60
2018-12-11T10:56:15.210Z,6.80
2018-12-11T11:03:54.985Z,7.00
2018-12-11T11:06:23.841Z,7.20
2018-12-11T11:08:52.827Z,7.30
2018-12-11T11:11:21.693Z,7.60
2018-12-11T11:13:50.512Z,7.50
2018-12-11T11:16:19.477Z,7.70
2018-12-11T11:18:48.356Z,7.70
2018-12-11T11:21:17.429Z,8.10
2018-12-11T11:23:46.603Z,8.20
2018-12-11T11:28:51.705Z,8.10
2018-12-11T11:31:20.609Z,7.70
2018-12-11T11:33:49.650Z,7.50
2018-12-11T11:36:18.543Z,7.30
2018-12-11T11:38:47.385Z,7.30
2018-12-11T11:41:16.319Z,7.30
2018-12-11T11:43:46.462Z,7.30
2018-12-11T11:46:15.700Z,7.40
2018-12-11T11:48:44.772Z,7.40
2018-12-11T11:51:13.972Z,7.50
2018-12-11T11:53:43.067Z,7.50
2018-12-11T11:56:12.511Z,7.60
2018-12-11T11:58:42.251Z,7.60
2018-12-11T12:01:11.117Z,7.50
2018-12-11T12:03:40.025Z,7.50
2018-12-11T12:06:08.938Z,7.40
2018-12-11T12:08:37.882Z,7.30
2018-12-11T12:11:06.818Z,7.40
2018-12-11T12:13:35.722Z,7.50
2018-12-11T12:16:04.725Z,7.60
2018-12-11T12:18:33.657Z,7.60
2018-12-11T12:21:02.453Z,7.60
2018-12-11T12:23:31.275Z,7.40
2018-12-11T12:26:00.101Z,7.40
2018-12-11T12:28:29.848Z,7.40
2018-12-11T12:31:01.007Z,7.50
2018-12-11T12:33:31.018Z,7.50
2018-12-11T12:35:59.872Z,7.60
2018-12-11T12:38:28.807Z,7.60
2018-12-11T12:40:57.639Z,7.50
2018-12-11T12:43:26.457Z,7.60
2018-12-11T12:45:55.279Z,7.50
2018-12-11T12:48:30.427Z,7.60
2018-12-11T12:50:59.381Z,7.60
2018-12-11T12:53:28.325Z,7.60
2018-12-11T12:55:57.298Z,7.70
2018-12-11T12:58:26.528Z,7.70
2018-12-11T13:00:55.699Z,7.60
2018-12-11T13:03:24.598Z,7.50
2018-12-11T13:05:53.611Z,7.40
2018-12-11T13:08:23.099Z,7.40
2018-12-11T13:10:51.964Z,7.30
2018-12-11T13:13:20.822Z,7.20
2018-12-11T13:15:49.667Z,7.20
2018-12-11T13:18:18.777Z,7.10
2018-12-11T13:20:48.253Z,7.00
2018-12-11T13:23:17.136Z,6.90
2018-12-11T13:25:45.971Z,6.80
2018-12-11T13:28:14.854Z,6.70
2018-12-11T13:30:43.751Z,6.70
2018-12-11T13:33:12.580Z,6.70
2018-12-11T13:35:41.587Z,6.70
2018-12-11T13:38:10.547Z,6.70
2018-12-11T13:40:39.654Z,6.80
2018-12-11T13:43:08.760Z,6.70
2018-12-11T13:45:37.820Z,6.80
2018-12-11T13:48:07.048Z,6.80
2018-12-11T13:50:36.058Z,6.80
2018-12-11T13:53:04.966Z,6.80
2018-12-11T13:55:33.881Z,6.80
2018-12-11T13:58:02.902Z,6.80
2018-12-11T14:00:31.831Z,6.80
2018-12-11T14:03:00.652Z,6.80
2018-12-11T14:05:29.516Z,6.70
2018-12-11T14:07:58.395Z,6.70
2018-12-11T14:10:27.263Z,6.70
2018-12-11T14:12:56.106Z,6.70
2018-12-11T14:15:25.136Z,6.60
2018-12-11T14:17:54.039Z,6.60
2018-12-11T14:20:22.952Z,6.60
2018-12-11T14:22:51.790Z,6.50
2018-12-11T14:25:20.707Z,6.40
2018-12-11T14:27:49.719Z,6.40
2018-12-11T14:30:18.712Z,6.30
2018-12-11T14:32:47.738Z,6.30
2018-12-11T14:35:16.638Z,6.30
2018-12-11T14:37:45.596Z,6.30
2018-12-11T14:40:14.488Z,6.30
2018-12-11T14:42:43.257Z,6.40
2018-12-11T14:45:12.192Z,6.40
2018-12-11T14:47:41.136Z,6.40
2018-12-11T14:50:10.563Z,6.40
2018-12-11T14:52:39.464Z,6.40
2018-12-11T14:55:09.599Z,6.40
2018-12-11T14:57:38.696Z,6.40
2018-12-11T15:00:09.202Z,6.40
2018-12-11T15:02:38.501Z,6.40
2018-12-11T15:05:07.730Z,6.40
2018-12-11T15:07:36.771Z,6.40
2018-12-11T15:10:08.134Z,6.40
2018-12-11T15:17:44.669Z,6.40
2018-12-11T15:20:13.756Z,6.20
2018-12-11T15:22:43.107Z,6.20
2018-12-11T15:25:11.954Z,6.20
2018-12-11T15:27:40.823Z,6.10
2018-12-11T15:30:09.834Z,6.00
2018-12-11T15:32:38.831Z,6.00
2018-12-11T15:35:07.787Z,5.90
2018-12-11T15:37:36.823Z,5.80
2018-12-11T15:40:06.127Z,5.80
2018-12-11T15:42:35.115Z,5.70
2018-12-11T15:45:04.401Z,5.70
2018-12-11T15:47:33.272Z,5.70
2018-12-11T15:50:02.298Z,5.70
2018-12-11T15:52:31.256Z,5.70
2018-12-11T15:55:00.180Z,5.70
2018-12-11T15:57:29.124Z,5.70
2018-12-11T15:59:58.026Z,5.80
2018-12-11T16:02:26.990Z,5.80
2018-12-11T16:04:56.023Z,5.80
2018-12-11T16:07:26.348Z,5.70
2018-12-11T16:09:55.444Z,5.70
2018-12-11T16:12:24.843Z,5.60
2018-12-11T16:14:53.879Z,5.60
2018-12-11T16:17:24.138Z,5.60
2018-12-11T16:19:53.314Z,5.60
2018-12-11T16:22:22.399Z,5.60
2018-12-11T16:24:51.605Z,5.70
2018-12-11T16:27:21.145Z,5.70
2018-12-11T16:29:50.447Z,5.70
2018-12-11T16:32:19.551Z,5.80
2018-12-11T16:34:50.871Z,5.90
2018-12-11T16:37:20.149Z,5.90
2018-12-11T16:39:49.166Z,5.90
2018-12-11T16:42:18.670Z,5.90
2018-12-11T16:44:47.535Z,5.90
2018-12-11T16:47:16.418Z,5.90
2018-12-11T16:49:45.225Z,5.90
2018-12-11T16:52:14.061Z,5.90
2018-12-11T16:54:42.947Z,5.90
2018-12-11T16:57:11.900Z,5.90
2018-12-11T16:59:40.774Z,5.80
2018-12-11T17:02:09.791Z,5.80
2018-12-11T17:04:38.633Z,5.80
2018-12-11T17:07:08.483Z,5.80
2018-12-11T17:09:41.016Z,5.80
2018-12-11T17:12:10.667Z,5.80
2018-12-11T17:14:39.653Z,5.70
2018-12-11T17:17:08.871Z,5.70
2018-12-11T17:22:21.601Z,5.70
2018-12-11T17:24:50.975Z,5.70
2018-12-11T17:27:20.414Z,5.70
2018-12-11T17:35:16.441Z,5.70
2018-12-11T17:37:46.644Z,5.70
2018-12-11T17:40:15.968Z,5.60
2018-12-11T17:42:45.387Z,5.60
2018-12-11T17:45:14.349Z,5.70
2018-12-11T17:47:43.578Z,5.70
2018-12-11T17:50:12.452Z,5.60
2018-12-11T17:52:41.369Z,5.60
2018-12-11T17:55:10.191Z,5.60
2018-12-11T17:57:39.323Z,5.60
2018-12-11T18:00:09.624Z,5.60
2018-12-11T18:02:39.343Z,5.60
2018-12-11T18:05:09.116Z,5.70
2018-12-11T18:07:37.986Z,5.60
2018-12-11T18:10:08.536Z,5.70
2018-12-11T18:12:37.426Z,5.60
2018-12-11T18:15:16.139Z,5.60
2018-12-11T18:17:45.040Z,5.60
2018-12-11T18:20:13.952Z,5.60
2018-12-11T18:22:49.627Z,5.60
2018-12-11T18:25:18.509Z,5.60
2018-12-11T18:27:47.624Z,5.60
2018-12-11T18:30:17.602Z,5.60
2018-12-11T18:32:47.795Z,5.60
2018-12-11T18:35:18.212Z,5.60
2018-12-11T18:37:50.271Z,5.60
2018-12-11T18:40:21.588Z,5.60
2018-12-11T18:42:52.173Z,5.60
2018-12-11T18:45:23.242Z,5.60
2018-12-11T18:47:54.162Z,5.60
2018-12-11T18:50:30.830Z,5.60
2018-12-11T18:53:05.941Z,5.50
2018-12-11T18:55:42.662Z,5.50
2018-12-11T18:58:13.750Z,5.50
2018-12-11T19:00:45.824Z,5.50
2018-12-11T19:03:18.196Z,5.50
2018-12-11T19:05:51.219Z,5.50
2018-12-11T19:08:23.859Z,5.50
2018-12-11T19:10:55.549Z,5.40
2018-12-11T19:13:28.573Z,5.40
2018-12-11T19:16:01.049Z,5.40
2018-12-11T19:18:33.138Z,5.30
2018-12-11T19:21:04.798Z,5.30
2018-12-11T19:23:58.034Z,5.30
2018-12-11T19:27:55.844Z,5.30
2018-12-11T19:30:27.949Z,5.20
2018-12-11T19:33:01.717Z,5.20
2018-12-11T19:35:33.359Z,5.20
2018-12-11T19:38:06.246Z,5.30
2018-12-11T19:40:40.719Z,5.30
2018-12-11T19:43:07.857Z,5.30
2018-12-11T19:45:36.804Z,5.30
2018-12-11T19:48:05.813Z,5.30
2018-12-11T19:50:34.703Z,5.40
2018-12-11T19:53:03.590Z,5.40
2018-12-11T19:55:32.475Z,5.40
2018-12-11T19:58:01.443Z,5.40
2018-12-11T20:00:30.546Z,5.30
2018-12-11T20:08:09.369Z,5.30
2018-12-11T20:10:38.291Z,5.30
2018-12-11T20:13:07.387Z,5.30
2018-12-11T20:15:36.369Z,5.40
2018-12-11T20:18:05.349Z,5.30
2018-12-11T20:20:35.516Z,5.40
2018-12-11T20:23:06.136Z,5.40
2018-12-11T20:25:35.881Z,5.40
2018-12-11T20:28:05.145Z,5.40
2018-12-11T20:30:34.096Z,5.40
2018-12-11T20:33:03.065Z,5.30
2018-12-11T20:35:32.076Z,5.30
2018-12-11T20:38:01.081Z,5.30
2018-12-11T20:40:31.440Z,5.20
2018-12-11T20:43:01.044Z,5.10
2018-12-11T20:45:31.396Z,5.00
2018-12-11T20:48:00.363Z,4.90
2018-12-11T20:50:29.519Z,4.80
2018-12-11T20:52:58.673Z,4.70
2018-12-11T20:55:27.618Z,4.60
2018-12-11T20:57:57.976Z,4.50
2018-12-11T21:00:29.298Z,4.40
2018-12-11T21:02:58.241Z,4.40
2018-12-11T21:05:58.501Z,4.30
2018-12-11T21:08:28.939Z,4.30
2018-12-11T21:10:58.021Z,4.20
2018-12-11T21:13:27.125Z,4.20
2018-12-11T21:17:56.347Z,4.10
2018-12-11T21:20:25.154Z,4.10
2018-12-11T21:22:55.635Z,4.10
2018-12-11T21:25:24.638Z,4.20
2018-12-11T21:27:53.638Z,4.20
2018-12-11T21:30:22.661Z,4.30
2018-12-11T21:32:51.723Z,4.40
2018-12-11T21:35:20.843Z,4.40
2018-12-11T21:37:49.819Z,4.50
2018-12-11T21:40:18.796Z,4.40
2018-12-11T21:42:47.736Z,4.40
2018-12-11T21:45:17.936Z,4.40
2018-12-11T21:47:50.796Z,4.40
2018-12-11T21:50:19.899Z,4.40
2018-12-11T21:52:49.955Z,4.40
2018-12-11T21:55:18.846Z,4.40
2018-12-11T21:57:49.855Z,4.40
2018-12-11T22:00:19.755Z,4.50
2018-12-11T22:02:48.580Z,4.40
2018-12-11T22:05:22.263Z,4.40
2018-12-11T22:07:51.193Z,4.40
2018-12-11T22:10:20.155Z,4.40
2018-12-11T22:12:49.232Z,4.40
2018-12-11T22:15:18.101Z,4.30
2018-12-11T22:17:47.077Z,4.30
2018-12-11T22:20:16.160Z,4.20
2018-12-11T22:22:45.256Z,4.20
2018-12-11T22:25:14.368Z,4.40
2018-12-11T22:27:43.398Z,4.40
2018-12-11T22:30:12.752Z,4.30
2018-12-11T22:32:41.639Z,4.20
2018-12-11T22:35:11.448Z,4.20
2018-12-11T22:37:41.841Z,4.20
2018-12-11T22:45:20.174Z,4.10
2018-12-11T22:47:49.481Z,4.20
2018-12-11T22:50:19.588Z,4.20
2018-12-11T22:52:48.556Z,4.20
2018-12-11T22:55:17.476Z,4.20
2018-12-11T22:57:46.491Z,4.20
2018-12-11T23:00:15.668Z,4.20
2018-12-11T23:02:46.499Z,4.20
2018-12-11T23:05:15.504Z,4.20
2018-12-11T23:07:44.402Z,4.20
2018-12-11T23:10:13.319Z,4.20
2018-12-11T23:12:42.196Z,4.30
2018-12-11T23:15:11.144Z,4.20
2018-12-11T23:17:40.001Z,4.30
2018-12-11T23:20:08.981Z,4.30
2018-12-11T23:22:37.872Z,4.30
2018-12-11T23:25:07.156Z,4.30
2018-12-11T23:27:35.962Z,4.30
2018-12-11T23:30:05.065Z,4.30
2018-12-11T23:32:34.004Z,4.40
2018-12-11T23:35:05.982Z,4.40
2018-12-11T23:37:34.871Z,4.40
2018-12-11T23:40:06.032Z,4.40
2018-12-11T23:42:34.981Z,4.40
2018-12-11T23:45:04.429Z,4.40
2018-12-11T23:47:34.369Z,4.40
2018-12-11T23:50:03.284Z,4.40
2018-12-11T23:52:33.194Z,4.40
2018-12-11T23:55:02.207Z,4.40
2018-12-11T23:57:31.067Z,4.40
2018-12-11T23:59:59.924Z,4.30
